Map

Track Data

SID SEASON NUMBER BASIN SUBBASIN NAME ISO_TIME NATURE LAT LON WMO_WIND WMO_PRES WMO_AGENCY TRACK_TYPE DIST2LAND LANDFALL IFLAG USA_AGENCY USA_ATCF_ID USA_LAT USA_LON USA_RECORD USA_STATUS USA_WIND USA_PRES USA_SSHS USA_R34_NE USA_R34_SE USA_R34_SW USA_R34_NW USA_R50_NE USA_R50_SE USA_R50_SW USA_R50_NW USA_R64_NE USA_R64_SE USA_R64_SW USA_R64_NW USA_POCI USA_ROCI USA_RMW USA_EYE TOKYO_LAT TOKYO_LON TOKYO_GRADE TOKYO_WIND TOKYO_PRES TOKYO_R50_DIR TOKYO_R50_LONG TOKYO_R50_SHORT TOKYO_R30_DIR TOKYO_R30_LONG TOKYO_R30_SHORT TOKYO_LAND CMA_LAT CMA_LON CMA_CAT CMA_WIND CMA_PRES HKO_LAT HKO_LON HKO_CAT HKO_WIND HKO_PRES NEWDELHI_LAT NEWDELHI_LON NEWDELHI_GRADE NEWDELHI_WIND NEWDELHI_PRES NEWDELHI_CI NEWDELHI_DP NEWDELHI_POCI REUNION_LAT REUNION_LON REUNION_TYPE REUNION_WIND REUNION_PRES REUNION_TNUM REUNION_CI REUNION_RMW REUNION_R34_NE REUNION_R34_SE REUNION_R34_SW REUNION_R34_NW REUNION_R50_NE REUNION_R50_SE REUNION_R50_SW REUNION_R50_NW REUNION_R64_NE REUNION_R64_SE REUNION_R64_SW REUNION_R64_NW BOM_LAT BOM_LON BOM_TYPE BOM_WIND BOM_PRES BOM_TNUM BOM_CI BOM_RMW BOM_R34_NE BOM_R34_SE BOM_R34_SW BOM_R34_NW BOM_R50_NE BOM_R50_SE BOM_R50_SW BOM_R50_NW BOM_R64_NE BOM_R64_SE BOM_R64_SW BOM_R64_NW BOM_ROCI BOM_POCI BOM_EYE BOM_POS_METHOD BOM_PRES_METHOD NADI_LAT NADI_LON NADI_CAT NADI_WIND NADI_PRES WELLINGTON_LAT WELLINGTON_LON WELLINGTON_WIND WELLINGTON_PRES DS824_LAT DS824_LON DS824_STAGE DS824_WIND DS824_PRES TD9636_LAT TD9636_LON TD9636_STAGE TD9636_WIND TD9636_PRES TD9635_LAT TD9635_LON TD9635_WIND TD9635_PRES TD9635_ROCI NEUMANN_LAT NEUMANN_LON NEUMANN_CLASS NEUMANN_WIND NEUMANN_PRES MLC_LAT MLC_LON MLC_CLASS MLC_WIND MLC_PRES USA_GUST BOM_GUST BOM_GUST_PER REUNION_GUST REUNION_GUST_PER USA_SEAHGT USA_SEARAD_NE USA_SEARAD_SE USA_SEARAD_SW USA_SEARAD_NW STORM_SPEED STORM_DIR
1989246N14263 1989 94 EP MM NARDA 1989-09-03 00:00:00 TS 14.2000 -97.4000 25 1012 hurdat_epa main 178 178 O_________O___ hurdat_epa EP171989 14.2000 -97.4000 TD 25 1012 -1 14.2000 -97.4000 1 25 14 279
1989246N14263 1989 94 EP MM NARDA 1989-09-03 03:00:00 TS 14.3062 -98.0996 main 193 193 P_________P___ EP171989 14.3228 -98.0797 TD 25 1011 -1 14.2565 -98.1590 1 25 14 277
1989246N14263 1989 94 EP MM NARDA 1989-09-03 06:00:00 TS 14.3774 -98.8287 25 1011 hurdat_epa main 208 208 O_________P___ hurdat_epa EP171989 14.4000 -98.8000 TD 25 1011 -1 14.3095 -98.9146 1 25 15 273
1989246N14263 1989 94 EP MM NARDA 1989-09-03 09:00:00 TS 14.3949 -99.6047 main 238 238 P_________P___ EP171989 14.4074 -99.5852 TD 25 1010 -1 14.3577 -99.6629 1 25 15 271
1989246N14263 1989 94 EP MM NARDA 1989-09-03 12:00:00 TS 14.4000 -100.400 25 1010 hurdat_epa main 268 268 O_________O___ hurdat_epa EP171989 14.4000 -100.400 TD 25 1010 -1 14.4000 -100.400 1 25 16 272
1989246N14263 1989 94 EP MM NARDA 1989-09-03 15:00:00 TS 14.4412 -101.203 main 303 303 P_________P___ EP171989 14.4425 -101.230 TD 27 1009 -1 14.4371 -101.123 1 27 15 274
1989246N14263 1989 94 EP MM NARDA 1989-09-03 18:00:00 TS 14.4942 -101.958 30 1009 hurdat_epa main 327 327 O_________P___ hurdat_epa EP171989 14.5000 -102.000 TD 30 1009 -1 14.4767 -101.830 1 30 14 274
1989246N14263 1989 94 EP MM NARDA 1989-09-03 21:00:00 TS 14.5385 -102.603 main 352 347 P_________P___ EP171989 14.5421 -102.630 TD 32 1008 -1 14.5279 -102.523 1 32 12 275
1989246N14263 1989 94 EP MM NARDA 1989-09-04 00:00:00 TS 14.6000 -103.200 35 1007 hurdat_epa main 376 376 O_________O___ hurdat_epa EP171989 14.6000 -103.200 TS 35 1007 0 14.6000 -103.200 2 35 12 277
1989246N14263 1989 94 EP MM NARDA 1989-09-04 03:00:00 TS 14.6862 -103.807 main 390 390 P_________P___ EP171989 14.6847 -103.785 TS 35 1006 0 14.6907 -103.873 2 35 12 280
1989246N14263 1989 94 EP MM NARDA 1989-09-04 06:00:00 TS 14.8011 -104.433 35 1005 hurdat_epa main 401 401 O_________P___ hurdat_epa EP171989 14.8000 -104.400 TS 35 1005 0 14.8043 -104.530 2 35 13 281
1989246N14263 1989 94 EP MM NARDA 1989-09-04 09:00:00 TS 14.9364 -105.113 main 416 411 P_________P___ EP171989 14.9350 -105.093 TS 35 1005 0 14.9407 -105.173 2 35 14 283
1989246N14263 1989 94 EP MM NARDA 1989-09-04 12:00:00 TS 15.1000 -105.800 35 1005 hurdat_epa main 433 433 O_________O___ hurdat_epa EP171989 15.1000 -105.800 TS 35 1005 0 15.1000 -105.800 2 35 14 285
1989246N14263 1989 94 EP MM NARDA 1989-09-04 15:00:00 TS 15.2888 -106.463 main 463 463 P_________P___ EP171989 15.2924 -106.473 TS 37 1004 0 15.2781 -106.435 2 37 13 288
1989246N14263 1989 94 EP MM NARDA 1989-09-04 18:00:00 TS 15.4943 -107.088 40 1003 hurdat_epa main 480 480 O_________P___ hurdat_epa EP171989 15.5000 -107.100 TS 40 1003 0 15.4772 -107.052 2 40 12 289
1989246N14263 1989 94 EP MM NARDA 1989-09-04 21:00:00 TS 15.6968 -107.671 main 498 495 P_________P___ EP171989 15.6998 -107.680 TS 42 1001 0 15.6876 -107.644 2 42 11 291
1989246N14263 1989 94 EP MM NARDA 1989-09-05 00:00:00 TS 15.9000 -108.200 45 1000 hurdat_epa main 516 515 O_________O___ hurdat_epa EP171989 15.9000 -108.200 TS 45 1000 0 15.9000 -108.200 2 45 10 293
1989246N14263 1989 94 EP MM NARDA 1989-09-05 03:00:00 TS 16.0986 -108.668 main 538 538 P_________P___ EP171989 16.0998 -108.658 TS 45 1000 0 16.0950 -108.699 2 45 10 294
1989246N14263 1989 94 EP MM NARDA 1989-09-05 06:00:00 TS 16.2978 -109.116 45 1000 hurdat_epa main 553 553 O_________P___ hurdat_epa EP171989 16.3000 -109.100 TS 45 1000 0 16.2912 -109.166 2 45 10 294
1989246N14263 1989 94 EP MM NARDA 1989-09-05 09:00:00 TS 16.4923 -109.595 main 578 578 P_________P___ EP171989 16.4924 -109.585 TS 45 1000 0 16.4919 -109.624 2 45 10 293
1989246N14263 1989 94 EP MM NARDA 1989-09-05 12:00:00 TS 16.7000 -110.100 45 1000 hurdat_epa main 608 608 O_________O___ hurdat_epa EP171989 16.7000 -110.100 TS 45 1000 0 16.7000 -110.100 2 45 11 294
1989246N14263 1989 94 EP MM NARDA 1989-09-05 15:00:00 TS 16.9449 -110.639 main 640 640 P_________P___ EP171989 16.9499 -110.642 TS 45 1000 0 16.9298 -110.628 2 43 12 295
1989246N14263 1989 94 EP MM NARDA 1989-09-05 18:00:00 TS 17.1912 -111.194 45 1000 hurdat_epa main 649 637 O_________P___ hurdat_epa EP171989 17.2000 -111.200 TS 45 1000 0 17.1648 -111.177 2 42 12 294
1989246N14263 1989 94 EP MM NARDA 1989-09-05 21:00:00 TS 17.4093 -111.753 main 643 635 P_________P___ EP171989 17.4149 -111.758 TS 42 1001 0 17.3923 -111.738 2 41 11 291
1989246N14263 1989 94 EP MM NARDA 1989-09-06 00:00:00 TS 17.6000 -112.300 40 1003 hurdat_epa main 639 637 O_________O___ hurdat_epa EP171989 17.6000 -112.300 TS 40 1003 0 17.6000 -112.300 2 40 11 289
1989246N14263 1989 94 EP MM NARDA 1989-09-06 03:00:00 TS 17.7576 -112.807 main 640 640 P_________P___ EP171989 17.7572 -112.793 TS 37 1004 0 17.7589 -112.851 2 38 10 287
1989246N14263 1989 94 EP MM NARDA 1989-09-06 06:00:00 TS 17.8998 -113.325 35 1005 hurdat_epa main 656 656 O_________P___ hurdat_epa EP171989 17.9000 -113.300 TS 35 1005 0 17.8994 -113.401 2 37 11 285
1989246N14263 1989 94 EP MM NARDA 1989-09-06 09:00:00 TS 18.0419 -113.902 main 682 673 P_________P___ EP171989 18.0424 -113.885 TS 35 1006 0 18.0402 -113.951 2 36 12 285
1989246N14263 1989 94 EP MM NARDA 1989-09-06 12:00:00 TS 18.2000 -114.500 35 1007 hurdat_epa main 703 703 O_________O___ hurdat_epa EP171989 18.2000 -114.500 TS 35 1007 0 18.2000 -114.500 2 35 12 287
1989246N14263 1989 94 EP MM NARDA 1989-09-06 15:00:00 TS 18.3915 -115.102 main 731 731 P_________P___ EP171989 18.3849 -115.115 TS 35 1007 0 18.4113 -115.062 2 33 12 290
1989246N14263 1989 94 EP MM NARDA 1989-09-06 18:00:00 TS 18.6106 -115.681 35 1008 hurdat_epa main 762 762 O_________P___ hurdat_epa EP171989 18.6000 -115.700 TS 35 1008 0 18.6422 -115.622 2 32 11 294
1989246N14263 1989 94 EP MM NARDA 1989-09-06 21:00:00 TS 18.8566 -116.204 main 773 773 P_________P___ EP171989 18.8497 -116.215 TS 32 1008 -1 18.8770 -116.171 2 31 11 297
1989246N14263 1989 94 EP MM NARDA 1989-09-07 00:00:00 TS 19.1000 -116.700 30 1009 hurdat_epa main 785 782 O_________O___ hurdat_epa EP171989 19.1000 -116.700 TD 30 1009 -1 19.1000 -116.700 1 30 11 296
1989246N14263 1989 94 EP MM NARDA 1989-09-07 03:00:00 TS 19.3125 -117.208 main 800 798 P_________P___ EP171989 19.3149 -117.208 TD 27 1009 -1 19.3052 -117.209 1 28 10 293
1989246N14263 1989 94 EP MM NARDA 1989-09-07 06:00:00 TS 19.4986 -117.699 25 1010 hurdat_epa main 818 818 O_________P___ hurdat_epa EP171989 19.5000 -117.700 TD 25 1010 -1 19.4944 -117.695 1 27 10 291
1989246N14263 1989 94 EP MM NARDA 1989-09-07 09:00:00 TS 19.6640 -118.164 main 840 840 P_________P___ EP171989 19.6649 -118.165 TD 25 1010 -1 19.6615 -118.159 1 26 9 290
1989246N14263 1989 94 EP MM NARDA 1989-09-07 12:00:00 TS 19.8000 -118.600 25 1011 hurdat_epa main 863 863 O_________O___ hurdat_epa EP171989 19.8000 -118.600 TD 25 1011 -1 19.8000 -118.600 1 25 8 287
1989246N14263 1989 94 EP MM NARDA 1989-09-07 15:00:00 TS 19.9126 -119.011 main 887 887 P_________P___ EP171989 19.9149 -119.008 TD 25 1011 -1 19.9060 -119.020 1 23 8 285
1989246N14263 1989 94 EP MM NARDA 1989-09-07 18:00:00 TS 19.9964 -119.406 25 1012 hurdat_epa main 913 913 O_________P___ hurdat_epa EP171989 20.0000 -119.400 TD 25 1012 -1 19.9856 -119.423 1 22 8 281
1989246N14263 1989 94 EP MM NARDA 1989-09-07 21:00:00 TS 20.0551 -119.802 main 940 940 P_________P___ EP171989 20.0577 -119.797 TD 22 1012 -1 20.0475 -119.814 1 21 8 278
1989246N14263 1989 94 EP MM NARDA 1989-09-08 00:00:00 TS 20.1000 -120.200 20 1012 hurdat_epa main 975 O_________O___ hurdat_epa EP171989 20.1000 -120.200 TD 20 1012 -1 20.1000 -120.200 1 20 8 277

About IBTrACS Database

This database is a web-friendly format of International Best Track Archive for Climate Stewardship (IBTrACS), a global best track data archive curated by NOAA dating back to 1842.

Updated: 2021-12-01